sensor_id;sensor_type;location;lat;lon;timestamp;P1;durP1;ratioP1;P2;durP2;ratioP2
71125;SDS011;58785;55.566;38.058;2023-04-24T00:00:03;35.17;;;15.70;;
71125;SDS011;58785;55.566;38.058;2023-04-24T00:02:34;35.00;;;15.32;;
71125;SDS011;58785;55.566;38.058;2023-04-24T00:05:03;39.97;;;15.80;;
71125;SDS011;58785;55.566;38.058;2023-04-24T00:07:31;35.95;;;14.88;;
71125;SDS011;58785;55.566;38.058;2023-04-24T00:09:57;34.93;;;15.70;;
71125;SDS011;58785;55.566;38.058;2023-04-24T00:12:23;34.10;;;15.27;;
71125;SDS011;58785;55.566;38.058;2023-04-24T00:14:49;28.75;;;13.57;;
71125;SDS011;58785;55.566;38.058;2023-04-24T00:17:15;33.43;;;14.63;;
71125;SDS011;58785;55.566;38.058;2023-04-24T00:19:41;34.53;;;14.50;;
71125;SDS011;58785;55.566;38.058;2023-04-24T00:22:07;36.75;;;15.02;;
71125;SDS011;58785;55.566;38.058;2023-04-24T00:24:33;29.60;;;15.20;;
71125;SDS011;58785;55.566;38.058;2023-04-24T00:26:58;35.65;;;14.95;;
71125;SDS011;58785;55.566;38.058;2023-04-24T00:29:26;32.42;;;13.88;;
71125;SDS011;58785;55.566;38.058;2023-04-24T00:31:51;35.40;;;13.27;;
71125;SDS011;58785;55.566;38.058;2023-04-24T00:34:17;31.38;;;12.55;;
71125;SDS011;58785;55.566;38.058;2023-04-24T00:36:43;29.97;;;13.00;;
71125;SDS011;58785;55.566;38.058;2023-04-24T00:39:09;32.33;;;13.05;;
71125;SDS011;58785;55.566;38.058;2023-04-24T00:41:35;32.13;;;13.80;;
71125;SDS011;58785;55.566;38.058;2023-04-24T00:44:01;30.33;;;13.10;;
71125;SDS011;58785;55.566;38.058;2023-04-24T00:46:26;31.17;;;13.13;;
71125;SDS011;58785;55.566;38.058;2023-04-24T00:48:52;26.87;;;11.93;;
71125;SDS011;58785;55.566;38.058;2023-04-24T00:51:18;27.83;;;11.77;;
71125;SDS011;58785;55.566;38.058;2023-04-24T00:53:44;27.52;;;12.35;;
71125;SDS011;58785;55.566;38.058;2023-04-24T00:56:09;25.67;;;11.87;;
71125;SDS011;58785;55.566;38.058;2023-04-24T00:58:35;30.08;;;12.70;;
71125;SDS011;58785;55.566;38.058;2023-04-24T01:01:02;28.90;;;12.75;;
71125;SDS011;58785;55.566;38.058;2023-04-24T01:03:32;33.73;;;12.17;;
71125;SDS011;58785;55.566;38.058;2023-04-24T01:05:58;27.52;;;12.32;;
71125;SDS011;58785;55.566;38.058;2023-04-24T01:08:25;30.25;;;12.70;;
71125;SDS011;58785;55.566;38.058;2023-04-24T01:10:53;29.02;;;12.23;;
71125;SDS011;58785;55.566;38.058;2023-04-24T01:13:19;35.78;;;12.48;;
71125;SDS011;58785;55.566;38.058;2023-04-24T01:15:46;28.60;;;12.13;;
71125;SDS011;58785;55.566;38.058;2023-04-24T01:18:13;27.42;;;12.40;;
71125;SDS011;58785;55.566;38.058;2023-04-24T01:20:39;30.30;;;12.13;;
71125;SDS011;58785;55.566;38.058;2023-04-24T01:23:06;30.23;;;12.15;;
71125;SDS011;58785;55.566;38.058;2023-04-24T01:25:33;29.77;;;11.95;;
71125;SDS011;58785;55.566;38.058;2023-04-24T01:27:59;30.20;;;13.70;;
71125;SDS011;58785;55.566;38.058;2023-04-24T01:30:25;30.70;;;12.57;;
71125;SDS011;58785;55.566;38.058;2023-04-24T01:32:52;26.25;;;11.85;;
71125;SDS011;58785;55.566;38.058;2023-04-24T01:35:18;27.27;;;12.52;;
71125;SDS011;58785;55.566;38.058;2023-04-24T01:37:45;26.93;;;11.97;;
71125;SDS011;58785;55.566;38.058;2023-04-24T01:40:10;29.35;;;13.02;;
71125;SDS011;58785;55.566;38.058;2023-04-24T01:42:37;26.48;;;12.07;;
71125;SDS011;58785;55.566;38.058;2023-04-24T01:45:03;31.80;;;14.60;;
71125;SDS011;58785;55.566;38.058;2023-04-24T01:47:31;29.23;;;12.93;;
71125;SDS011;58785;55.566;38.058;2023-04-24T01:49:57;32.25;;;16.00;;
71125;SDS011;58785;55.566;38.058;2023-04-24T01:52:23;35.50;;;16.23;;
71125;SDS011;58785;55.566;38.058;2023-04-24T01:54:49;36.28;;;16.20;;
71125;SDS011;58785;55.566;38.058;2023-04-24T01:57:16;35.77;;;15.63;;
71125;SDS011;58785;55.566;38.058;2023-04-24T01:59:42;37.95;;;15.38;;
71125;SDS011;58785;55.566;38.058;2023-04-24T02:02:08;35.63;;;15.67;;
71125;SDS011;58785;55.566;38.058;2023-04-24T02:04:33;32.03;;;15.98;;
71125;SDS011;58785;55.566;38.058;2023-04-24T02:06:59;38.88;;;17.10;;
71125;SDS011;58785;55.566;38.058;2023-04-24T02:09:25;36.90;;;16.23;;
71125;SDS011;58785;55.566;38.058;2023-04-24T02:11:50;39.20;;;16.67;;
71125;SDS011;58785;55.566;38.058;2023-04-24T02:14:16;37.15;;;16.85;;
71125;SDS011;58785;55.566;38.058;2023-04-24T02:16:42;35.28;;;16.15;;
71125;SDS011;58785;55.566;38.058;2023-04-24T02:19:08;33.53;;;16.60;;
71125;SDS011;58785;55.566;38.058;2023-04-24T02:21:34;38.38;;;17.83;;
71125;SDS011;58785;55.566;38.058;2023-04-24T02:24:00;46.72;;;17.52;;
71125;SDS011;58785;55.566;38.058;2023-04-24T02:26:26;38.60;;;18.17;;
71125;SDS011;58785;55.566;38.058;2023-04-24T02:28:52;43.43;;;18.67;;
71125;SDS011;58785;55.566;38.058;2023-04-24T02:31:17;41.75;;;18.10;;
71125;SDS011;58785;55.566;38.058;2023-04-24T02:33:43;40.97;;;17.23;;
71125;SDS011;58785;55.566;38.058;2023-04-24T02:36:09;41.70;;;17.20;;
71125;SDS011;58785;55.566;38.058;2023-04-24T02:38:34;36.23;;;16.10;;
71125;SDS011;58785;55.566;38.058;2023-04-24T02:41:00;43.50;;;18.50;;
71125;SDS011;58785;55.566;38.058;2023-04-24T02:43:27;40.70;;;18.03;;
71125;SDS011;58785;55.566;38.058;2023-04-24T02:45:53;40.17;;;18.23;;
71125;SDS011;58785;55.566;38.058;2023-04-24T02:48:19;41.00;;;17.20;;
71125;SDS011;58785;55.566;38.058;2023-04-24T02:50:46;35.85;;;17.05;;
71125;SDS011;58785;55.566;38.058;2023-04-24T02:53:11;37.97;;;16.43;;
71125;SDS011;58785;55.566;38.058;2023-04-24T02:55:37;35.92;;;16.30;;
71125;SDS011;58785;55.566;38.058;2023-04-24T02:58:03;35.87;;;16.13;;
71125;SDS011;58785;55.566;38.058;2023-04-24T03:00:29;40.88;;;16.17;;
71125;SDS011;58785;55.566;38.058;2023-04-24T03:02:55;31.50;;;14.82;;
71125;SDS011;58785;55.566;38.058;2023-04-24T03:05:21;30.57;;;14.90;;
71125;SDS011;58785;55.566;38.058;2023-04-24T03:07:46;31.50;;;14.95;;
71125;SDS011;58785;55.566;38.058;2023-04-24T03:10:12;31.87;;;15.17;;
71125;SDS011;58785;55.566;38.058;2023-04-24T03:12:38;32.95;;;15.55;;
71125;SDS011;58785;55.566;38.058;2023-04-24T03:15:04;34.35;;;15.43;;
71125;SDS011;58785;55.566;38.058;2023-04-24T03:17:31;28.97;;;15.00;;
71125;SDS011;58785;55.566;38.058;2023-04-24T03:19:57;29.92;;;14.05;;
71125;SDS011;58785;55.566;38.058;2023-04-24T03:22:22;26.77;;;15.18;;
71125;SDS011;58785;55.566;38.058;2023-04-24T03:24:48;29.57;;;15.20;;
71125;SDS011;58785;55.566;38.058;2023-04-24T03:27:14;30.97;;;15.53;;
71125;SDS011;58785;55.566;38.058;2023-04-24T03:29:39;31.50;;;15.13;;
71125;SDS011;58785;55.566;38.058;2023-04-24T03:32:05;34.13;;;15.87;;
71125;SDS011;58785;55.566;38.058;2023-04-24T03:34:30;33.80;;;15.65;;
71125;SDS011;58785;55.566;38.058;2023-04-24T03:36:56;36.90;;;16.17;;
71125;SDS011;58785;55.566;38.058;2023-04-24T03:39:22;26.27;;;15.50;;
71125;SDS011;58785;55.566;38.058;2023-04-24T03:41:48;26.97;;;14.13;;
71125;SDS011;58785;55.566;38.058;2023-04-24T03:44:13;32.28;;;15.82;;
71125;SDS011;58785;55.566;38.058;2023-04-24T03:46:39;31.27;;;15.85;;
71125;SDS011;58785;55.566;38.058;2023-04-24T03:49:05;35.70;;;15.23;;
71125;SDS011;58785;55.566;38.058;2023-04-24T03:51:31;29.77;;;16.38;;
71125;SDS011;58785;55.566;38.058;2023-04-24T03:53:57;30.65;;;15.88;;
71125;SDS011;58785;55.566;38.058;2023-04-24T03:56:23;28.83;;;15.30;;
71125;SDS011;58785;55.566;38.058;2023-04-24T03:58:49;29.90;;;15.82;;
71125;SDS011;58785;55.566;38.058;2023-04-24T04:01:14;32.17;;;15.40;;
71125;SDS011;58785;55.566;38.058;2023-04-24T04:03:41;33.17;;;15.95;;
71125;SDS011;58785;55.566;38.058;2023-04-24T04:06:07;32.58;;;15.48;;
71125;SDS011;58785;55.566;38.058;2023-04-24T04:08:32;33.20;;;16.07;;
71125;SDS011;58785;55.566;38.058;2023-04-24T04:10:58;33.00;;;15.73;;
71125;SDS011;58785;55.566;38.058;2023-04-24T04:13:24;30.77;;;15.93;;
71125;SDS011;58785;55.566;38.058;2023-04-24T04:15:49;29.08;;;14.63;;
71125;SDS011;58785;55.566;38.058;2023-04-24T04:18:15;30.53;;;15.33;;
71125;SDS011;58785;55.566;38.058;2023-04-24T04:20:41;30.08;;;15.65;;
71125;SDS011;58785;55.566;38.058;2023-04-24T04:23:06;27.47;;;14.33;;
71125;SDS011;58785;55.566;38.058;2023-04-24T04:25:32;30.20;;;14.77;;
71125;SDS011;58785;55.566;38.058;2023-04-24T04:27:58;33.10;;;14.27;;
71125;SDS011;58785;55.566;38.058;2023-04-24T04:30:24;23.63;;;12.70;;
71125;SDS011;58785;55.566;38.058;2023-04-24T04:32:51;25.58;;;14.57;;
71125;SDS011;58785;55.566;38.058;2023-04-24T04:35:17;24.85;;;14.15;;
71125;SDS011;58785;55.566;38.058;2023-04-24T04:37:43;25.77;;;13.80;;
71125;SDS011;58785;55.566;38.058;2023-04-24T04:40:08;24.17;;;13.57;;
71125;SDS011;58785;55.566;38.058;2023-04-24T04:42:37;28.25;;;14.00;;
71125;SDS011;58785;55.566;38.058;2023-04-24T04:45:06;27.30;;;14.13;;
71125;SDS011;58785;55.566;38.058;2023-04-24T04:47:37;25.20;;;13.40;;
71125;SDS011;58785;55.566;38.058;2023-04-24T04:50:03;25.85;;;12.98;;
71125;SDS011;58785;55.566;38.058;2023-04-24T04:52:31;23.83;;;13.07;;
71125;SDS011;58785;55.566;38.058;2023-04-24T04:54:58;23.27;;;12.88;;
71125;SDS011;58785;55.566;38.058;2023-04-24T04:57:24;26.63;;;13.30;;
71125;SDS011;58785;55.566;38.058;2023-04-24T04:59:50;27.13;;;13.57;;
71125;SDS011;58785;55.566;38.058;2023-04-24T05:02:15;25.17;;;13.27;;
71125;SDS011;58785;55.566;38.058;2023-04-24T05:04:41;21.53;;;12.17;;
71125;SDS011;58785;55.566;38.058;2023-04-24T05:07:06;25.60;;;12.97;;
71125;SDS011;58785;55.566;38.058;2023-04-24T05:09:32;20.23;;;12.77;;
71125;SDS011;58785;55.566;38.058;2023-04-24T05:11:58;22.67;;;11.90;;
71125;SDS011;58785;55.566;38.058;2023-04-24T05:14:23;20.30;;;12.25;;
71125;SDS011;58785;55.566;38.058;2023-04-24T05:16:49;20.03;;;11.97;;
71125;SDS011;58785;55.566;38.058;2023-04-24T05:19:15;20.60;;;11.82;;
71125;SDS011;58785;55.566;38.058;2023-04-24T05:21:41;19.80;;;11.43;;
71125;SDS011;58785;55.566;38.058;2023-04-24T05:24:06;23.95;;;11.48;;
71125;SDS011;58785;55.566;38.058;2023-04-24T05:26:32;18.33;;;11.50;;
71125;SDS011;58785;55.566;38.058;2023-04-24T05:28:58;21.40;;;12.27;;
71125;SDS011;58785;55.566;38.058;2023-04-24T05:31:23;22.23;;;10.03;;
71125;SDS011;58785;55.566;38.058;2023-04-24T05:33:50;18.38;;;9.80;;
71125;SDS011;58785;55.566;38.058;2023-04-24T05:36:16;19.45;;;8.77;;
71125;SDS011;58785;55.566;38.058;2023-04-24T05:38:41;13.63;;;6.60;;
71125;SDS011;58785;55.566;38.058;2023-04-24T05:41:07;17.80;;;5.90;;
71125;SDS011;58785;55.566;38.058;2023-04-24T05:43:33;16.73;;;6.10;;
71125;SDS011;58785;55.566;38.058;2023-04-24T05:45:58;12.90;;;5.65;;
71125;SDS011;58785;55.566;38.058;2023-04-24T05:48:24;11.93;;;5.77;;
71125;SDS011;58785;55.566;38.058;2023-04-24T05:50:50;15.07;;;5.70;;
71125;SDS011;58785;55.566;38.058;2023-04-24T05:53:17;17.63;;;5.88;;
71125;SDS011;58785;55.566;38.058;2023-04-24T05:55:44;15.32;;;5.13;;
71125;SDS011;58785;55.566;38.058;2023-04-24T05:58:10;14.97;;;6.27;;
71125;SDS011;58785;55.566;38.058;2023-04-24T06:00:37;13.25;;;5.63;;
71125;SDS011;58785;55.566;38.058;2023-04-24T06:03:05;12.05;;;5.15;;
71125;SDS011;58785;55.566;38.058;2023-04-24T06:05:31;13.52;;;5.80;;
71125;SDS011;58785;55.566;38.058;2023-04-24T06:07:57;11.17;;;4.27;;
71125;SDS011;58785;55.566;38.058;2023-04-24T06:10:22;10.48;;;4.50;;
71125;SDS011;58785;55.566;38.058;2023-04-24T06:12:48;8.77;;;4.93;;
71125;SDS011;58785;55.566;38.058;2023-04-24T06:15:14;9.97;;;5.37;;
71125;SDS011;58785;55.566;38.058;2023-04-24T06:17:39;9.55;;;4.60;;
71125;SDS011;58785;55.566;38.058;2023-04-24T06:20:05;16.80;;;5.43;;
71125;SDS011;58785;55.566;38.058;2023-04-24T06:22:33;11.55;;;4.10;;
71125;SDS011;58785;55.566;38.058;2023-04-24T06:24:59;16.03;;;5.80;;
71125;SDS011;58785;55.566;38.058;2023-04-24T06:27:25;13.13;;;4.90;;
71125;SDS011;58785;55.566;38.058;2023-04-24T06:29:51;11.93;;;4.75;;
71125;SDS011;58785;55.566;38.058;2023-04-24T06:32:21;12.02;;;4.47;;
71125;SDS011;58785;55.566;38.058;2023-04-24T06:34:52;14.27;;;7.10;;
71125;SDS011;58785;55.566;38.058;2023-04-24T06:37:18;9.43;;;4.50;;
71125;SDS011;58785;55.566;38.058;2023-04-24T06:39:45;8.32;;;4.63;;
71125;SDS011;58785;55.566;38.058;2023-04-24T06:42:11;12.65;;;4.93;;
71125;SDS011;58785;55.566;38.058;2023-04-24T06:44:37;12.05;;;5.07;;
71125;SDS011;58785;55.566;38.058;2023-04-24T06:47:09;8.70;;;4.80;;
71125;SDS011;58785;55.566;38.058;2023-04-24T06:49:36;12.23;;;5.60;;
71125;SDS011;58785;55.566;38.058;2023-04-24T06:52:02;21.70;;;7.85;;
71125;SDS011;58785;55.566;38.058;2023-04-24T06:54:28;10.20;;;5.32;;
71125;SDS011;58785;55.566;38.058;2023-04-24T06:56:55;14.98;;;5.00;;
71125;SDS011;58785;55.566;38.058;2023-04-24T06:59:23;11.27;;;3.83;;
71125;SDS011;58785;55.566;38.058;2023-04-24T07:01:49;10.75;;;4.07;;
71125;SDS011;58785;55.566;38.058;2023-04-24T07:04:16;11.88;;;4.47;;
71125;SDS011;58785;55.566;38.058;2023-04-24T07:06:42;13.30;;;4.15;;
71125;SDS011;58785;55.566;38.058;2023-04-24T07:09:08;11.48;;;4.10;;
71125;SDS011;58785;55.566;38.058;2023-04-24T07:11:34;16.93;;;4.47;;
71125;SDS011;58785;55.566;38.058;2023-04-24T07:14:03;9.38;;;4.50;;
71125;SDS011;58785;55.566;38.058;2023-04-24T07:16:28;9.05;;;4.40;;
71125;SDS011;58785;55.566;38.058;2023-04-24T07:18:55;10.00;;;4.10;;
71125;SDS011;58785;55.566;38.058;2023-04-24T07:21:20;13.10;;;4.20;;
71125;SDS011;58785;55.566;38.058;2023-04-24T07:23:46;8.27;;;3.70;;
71125;SDS011;58785;55.566;38.058;2023-04-24T07:26:12;8.50;;;4.00;;
71125;SDS011;58785;55.566;38.058;2023-04-24T07:28:40;13.57;;;4.40;;
71125;SDS011;58785;55.566;38.058;2023-04-24T07:31:06;8.03;;;3.90;;
71125;SDS011;58785;55.566;38.058;2023-04-24T07:33:32;10.35;;;4.50;;
71125;SDS011;58785;55.566;38.058;2023-04-24T07:35:58;12.82;;;4.45;;
71125;SDS011;58785;55.566;38.058;2023-04-24T07:38:24;7.60;;;4.38;;
71125;SDS011;58785;55.566;38.058;2023-04-24T07:40:51;9.13;;;4.27;;
71125;SDS011;58785;55.566;38.058;2023-04-24T07:43:17;8.43;;;4.32;;
71125;SDS011;58785;55.566;38.058;2023-04-24T07:45:45;12.98;;;3.80;;
71125;SDS011;58785;55.566;38.058;2023-04-24T07:48:11;11.52;;;4.68;;
71125;SDS011;58785;55.566;38.058;2023-04-24T07:50:39;12.37;;;4.20;;
71125;SDS011;58785;55.566;38.058;2023-04-24T07:53:05;7.93;;;4.25;;
71125;SDS011;58785;55.566;38.058;2023-04-24T07:55:31;8.80;;;3.72;;
71125;SDS011;58785;55.566;38.058;2023-04-24T07:57:56;10.37;;;5.20;;
71125;SDS011;58785;55.566;38.058;2023-04-24T08:00:22;9.73;;;4.43;;
71125;SDS011;58785;55.566;38.058;2023-04-24T08:02:48;7.77;;;4.50;;
71125;SDS011;58785;55.566;38.058;2023-04-24T08:05:13;7.47;;;4.43;;
71125;SDS011;58785;55.566;38.058;2023-04-24T08:07:39;9.47;;;4.60;;
71125;SDS011;58785;55.566;38.058;2023-04-24T08:10:07;9.32;;;4.07;;
71125;SDS011;58785;55.566;38.058;2023-04-24T08:12:35;9.52;;;4.30;;
71125;SDS011;58785;55.566;38.058;2023-04-24T08:15:01;8.35;;;4.82;;
71125;SDS011;58785;55.566;38.058;2023-04-24T08:17:28;7.90;;;4.55;;
71125;SDS011;58785;55.566;38.058;2023-04-24T08:19:54;9.57;;;4.50;;
71125;SDS011;58785;55.566;38.058;2023-04-24T08:22:26;9.68;;;4.78;;
71125;SDS011;58785;55.566;38.058;2023-04-24T08:24:53;18.23;;;5.15;;
71125;SDS011;58785;55.566;38.058;2023-04-24T08:27:19;7.15;;;4.13;;
71125;SDS011;58785;55.566;38.058;2023-04-24T08:29:45;8.43;;;4.63;;
71125;SDS011;58785;55.566;38.058;2023-04-24T08:32:11;8.02;;;3.70;;
71125;SDS011;58785;55.566;38.058;2023-04-24T08:34:36;8.73;;;4.80;;
71125;SDS011;58785;55.566;38.058;2023-04-24T08:37:02;17.00;;;4.97;;
71125;SDS011;58785;55.566;38.058;2023-04-24T08:39:28;8.50;;;4.25;;
71125;SDS011;58785;55.566;38.058;2023-04-24T08:41:54;10.02;;;4.30;;
71125;SDS011;58785;55.566;38.058;2023-04-24T08:44:21;8.07;;;4.07;;
71125;SDS011;58785;55.566;38.058;2023-04-24T08:46:47;39.20;;;17.57;;
71125;SDS011;58785;55.566;38.058;2023-04-24T08:49:14;15.77;;;9.30;;
71125;SDS011;58785;55.566;38.058;2023-04-24T08:51:44;9.55;;;5.97;;
71125;SDS011;58785;55.566;38.058;2023-04-24T08:54:12;26.00;;;15.93;;
71125;SDS011;58785;55.566;38.058;2023-04-24T08:56:39;9.60;;;6.73;;
71125;SDS011;58785;55.566;38.058;2023-04-24T08:59:07;9.57;;;5.28;;
71125;SDS011;58785;55.566;38.058;2023-04-24T09:01:34;9.38;;;4.45;;
71125;SDS011;58785;55.566;38.058;2023-04-24T09:04:03;10.35;;;4.53;;
71125;SDS011;58785;55.566;38.058;2023-04-24T09:06:29;8.48;;;4.00;;
71125;SDS011;58785;55.566;38.058;2023-04-24T09:08:58;12.43;;;4.23;;
71125;SDS011;58785;55.566;38.058;2023-04-24T09:11:26;8.00;;;4.22;;
71125;SDS011;58785;55.566;38.058;2023-04-24T09:13:53;9.40;;;4.80;;
71125;SDS011;58785;55.566;38.058;2023-04-24T09:16:19;7.55;;;4.10;;
71125;SDS011;58785;55.566;38.058;2023-04-24T09:18:45;9.18;;;4.43;;
71125;SDS011;58785;55.566;38.058;2023-04-24T09:21:11;8.00;;;3.90;;
71125;SDS011;58785;55.566;38.058;2023-04-24T09:23:37;12.23;;;5.78;;
71125;SDS011;58785;55.566;38.058;2023-04-24T09:26:03;10.02;;;4.00;;
71125;SDS011;58785;55.566;38.058;2023-04-24T09:28:35;7.40;;;4.05;;
71125;SDS011;58785;55.566;38.058;2023-04-24T09:31:02;8.93;;;4.53;;
71125;SDS011;58785;55.566;38.058;2023-04-24T09:33:29;9.07;;;5.10;;
71125;SDS011;58785;55.566;38.058;2023-04-24T09:35:55;11.23;;;8.00;;
71125;SDS011;58785;55.566;38.058;2023-04-24T09:38:30;7.10;;;3.95;;
71125;SDS011;58785;55.566;38.058;2023-04-24T09:41:02;7.57;;;3.67;;
71125;SDS011;58785;55.566;38.058;2023-04-24T09:43:30;10.37;;;6.87;;
71125;SDS011;58785;55.566;38.058;2023-04-24T09:45:57;7.35;;;3.78;;
71125;SDS011;58785;55.566;38.058;2023-04-24T09:48:33;10.27;;;3.63;;
71125;SDS011;58785;55.566;38.058;2023-04-24T09:51:02;11.75;;;3.72;;
71125;SDS011;58785;55.566;38.058;2023-04-24T09:53:29;8.65;;;4.68;;
71125;SDS011;58785;55.566;38.058;2023-04-24T09:55:56;8.23;;;4.30;;
71125;SDS011;58785;55.566;38.058;2023-04-24T09:58:28;8.68;;;4.10;;
71125;SDS011;58785;55.566;38.058;2023-04-24T10:00:54;8.02;;;3.58;;
71125;SDS011;58785;55.566;38.058;2023-04-24T10:03:25;9.25;;;3.97;;
71125;SDS011;58785;55.566;38.058;2023-04-24T10:05:54;6.43;;;3.38;;
71125;SDS011;58785;55.566;38.058;2023-04-24T10:08:24;7.83;;;4.03;;
71125;SDS011;58785;55.566;38.058;2023-04-24T10:10:50;14.43;;;3.47;;
71125;SDS011;58785;55.566;38.058;2023-04-24T10:13:15;11.82;;;3.80;;
71125;SDS011;58785;55.566;38.058;2023-04-24T10:15:41;6.87;;;3.57;;
71125;SDS011;58785;55.566;38.058;2023-04-24T10:18:08;6.78;;;3.33;;
71125;SDS011;58785;55.566;38.058;2023-04-24T10:20:35;6.53;;;3.60;;
71125;SDS011;58785;55.566;38.058;2023-04-24T10:23:02;7.90;;;3.77;;
71125;SDS011;58785;55.566;38.058;2023-04-24T10:25:33;11.10;;;4.37;;
71125;SDS011;58785;55.566;38.058;2023-04-24T10:28:01;9.20;;;3.70;;
71125;SDS011;58785;55.566;38.058;2023-04-24T10:30:29;7.00;;;3.60;;
71125;SDS011;58785;55.566;38.058;2023-04-24T10:32:56;10.98;;;3.88;;
71125;SDS011;58785;55.566;38.058;2023-04-24T10:35:22;8.73;;;3.47;;
71125;SDS011;58785;55.566;38.058;2023-04-24T10:40:41;12.10;;;3.70;;
71125;SDS011;58785;55.566;38.058;2023-04-24T10:43:07;8.88;;;3.42;;
71125;SDS011;58785;55.566;38.058;2023-04-24T10:45:38;9.20;;;3.45;;
71125;SDS011;58785;55.566;38.058;2023-04-24T10:48:04;14.87;;;4.43;;
71125;SDS011;58785;55.566;38.058;2023-04-24T10:53:14;11.95;;;4.20;;
71125;SDS011;58785;55.566;38.058;2023-04-24T10:55:45;13.27;;;4.05;;
71125;SDS011;58785;55.566;38.058;2023-04-24T10:58:16;9.25;;;3.88;;
71125;SDS011;58785;55.566;38.058;2023-04-24T11:00:55;11.98;;;3.70;;
71125;SDS011;58785;55.566;38.058;2023-04-24T11:03:32;6.93;;;3.43;;
71125;SDS011;58785;55.566;38.058;2023-04-24T11:06:06;10.98;;;3.78;;
71125;SDS011;58785;55.566;38.058;2023-04-24T11:08:37;8.60;;;3.83;;
71125;SDS011;58785;55.566;38.058;2023-04-24T11:11:16;8.48;;;3.50;;
71125;SDS011;58785;55.566;38.058;2023-04-24T11:16:28;8.50;;;3.43;;
71125;SDS011;58785;55.566;38.058;2023-04-24T11:24:29;9.10;;;4.35;;
71125;SDS011;58785;55.566;38.058;2023-04-24T11:26:57;11.10;;;5.57;;
71125;SDS011;58785;55.566;38.058;2023-04-24T11:29:30;8.48;;;4.20;;
71125;SDS011;58785;55.566;38.058;2023-04-24T11:34:48;14.52;;;8.13;;
71125;SDS011;58785;55.566;38.058;2023-04-24T11:37:16;11.80;;;5.63;;
71125;SDS011;58785;55.566;38.058;2023-04-24T11:39:42;10.63;;;4.35;;
71125;SDS011;58785;55.566;38.058;2023-04-24T11:42:08;7.33;;;3.87;;
71125;SDS011;58785;55.566;38.058;2023-04-24T11:44:35;8.73;;;3.20;;
71125;SDS011;58785;55.566;38.058;2023-04-24T11:47:04;9.82;;;4.30;;
71125;SDS011;58785;55.566;38.058;2023-04-24T11:49:31;7.70;;;3.35;;
71125;SDS011;58785;55.566;38.058;2023-04-24T11:51:56;9.40;;;4.50;;
71125;SDS011;58785;55.566;38.058;2023-04-24T11:54:22;11.63;;;8.48;;
71125;SDS011;58785;55.566;38.058;2023-04-24T11:56:48;8.47;;;4.37;;
71125;SDS011;58785;55.566;38.058;2023-04-24T11:59:14;10.27;;;4.05;;
71125;SDS011;58785;55.566;38.058;2023-04-24T12:01:43;8.10;;;3.87;;
71125;SDS011;58785;55.566;38.058;2023-04-24T12:04:13;7.87;;;4.13;;
71125;SDS011;58785;55.566;38.058;2023-04-24T12:06:39;6.80;;;3.90;;
71125;SDS011;58785;55.566;38.058;2023-04-24T12:09:05;9.38;;;5.43;;
71125;SDS011;58785;55.566;38.058;2023-04-24T12:11:31;9.13;;;3.90;;
71125;SDS011;58785;55.566;38.058;2023-04-24T12:13:57;7.07;;;3.78;;
71125;SDS011;58785;55.566;38.058;2023-04-24T12:16:34;7.60;;;4.05;;
71125;SDS011;58785;55.566;38.058;2023-04-24T12:18:59;7.33;;;3.60;;
71125;SDS011;58785;55.566;38.058;2023-04-24T12:21:27;7.82;;;3.95;;
71125;SDS011;58785;55.566;38.058;2023-04-24T12:23:55;9.73;;;4.13;;
71125;SDS011;58785;55.566;38.058;2023-04-24T12:26:21;7.75;;;3.83;;
71125;SDS011;58785;55.566;38.058;2023-04-24T12:28:48;7.37;;;3.80;;
71125;SDS011;58785;55.566;38.058;2023-04-24T12:31:15;10.48;;;3.38;;
71125;SDS011;58785;55.566;38.058;2023-04-24T12:33:42;7.72;;;3.50;;
71125;SDS011;58785;55.566;38.058;2023-04-24T12:36:11;6.80;;;3.15;;
71125;SDS011;58785;55.566;38.058;2023-04-24T12:38:37;10.48;;;3.75;;
71125;SDS011;58785;55.566;38.058;2023-04-24T12:43:36;11.83;;;3.60;;
71125;SDS011;58785;55.566;38.058;2023-04-24T12:46:02;7.45;;;4.03;;
71125;SDS011;58785;55.566;38.058;2023-04-24T12:48:28;7.72;;;4.03;;
71125;SDS011;58785;55.566;38.058;2023-04-24T12:50:59;7.88;;;4.13;;
71125;SDS011;58785;55.566;38.058;2023-04-24T12:53:28;7.80;;;3.28;;
71125;SDS011;58785;55.566;38.058;2023-04-24T12:55:57;12.57;;;4.30;;
71125;SDS011;58785;55.566;38.058;2023-04-24T12:58:23;12.00;;;4.33;;
71125;SDS011;58785;55.566;38.058;2023-04-24T13:00:48;8.48;;;5.55;;
71125;SDS011;58785;55.566;38.058;2023-04-24T13:03:14;8.47;;;4.30;;
71125;SDS011;58785;55.566;38.058;2023-04-24T13:05:41;8.20;;;4.10;;
71125;SDS011;58785;55.566;38.058;2023-04-24T13:08:08;8.63;;;4.05;;
71125;SDS011;58785;55.566;38.058;2023-04-24T13:10:34;7.93;;;3.47;;
71125;SDS011;58785;55.566;38.058;2023-04-24T13:13:00;9.00;;;4.07;;
71125;SDS011;58785;55.566;38.058;2023-04-24T13:15:25;9.15;;;5.20;;
71125;SDS011;58785;55.566;38.058;2023-04-24T13:17:51;8.37;;;4.00;;
71125;SDS011;58785;55.566;38.058;2023-04-24T13:20:17;9.07;;;4.18;;
71125;SDS011;58785;55.566;38.058;2023-04-24T13:22:43;12.05;;;5.20;;
71125;SDS011;58785;55.566;38.058;2023-04-24T13:25:09;7.50;;;4.17;;
71125;SDS011;58785;55.566;38.058;2023-04-24T13:27:35;10.07;;;3.95;;
71125;SDS011;58785;55.566;38.058;2023-04-24T13:30:03;7.85;;;3.50;;
71125;SDS011;58785;55.566;38.058;2023-04-24T13:32:31;20.13;;;9.15;;
71125;SDS011;58785;55.566;38.058;2023-04-24T13:34:58;8.50;;;3.37;;
71125;SDS011;58785;55.566;38.058;2023-04-24T13:37:24;7.07;;;3.25;;
71125;SDS011;58785;55.566;38.058;2023-04-24T13:39:49;7.70;;;2.60;;
71125;SDS011;58785;55.566;38.058;2023-04-24T13:42:15;5.82;;;2.92;;
71125;SDS011;58785;55.566;38.058;2023-04-24T13:44:41;9.98;;;3.20;;
71125;SDS011;58785;55.566;38.058;2023-04-24T13:47:07;7.33;;;3.40;;
71125;SDS011;58785;55.566;38.058;2023-04-24T13:49:32;6.75;;;2.75;;
71125;SDS011;58785;55.566;38.058;2023-04-24T13:51:58;11.13;;;3.90;;
71125;SDS011;58785;55.566;38.058;2023-04-24T13:54:24;8.80;;;3.20;;
71125;SDS011;58785;55.566;38.058;2023-04-24T13:56:51;8.77;;;3.17;;
71125;SDS011;58785;55.566;38.058;2023-04-24T13:59:17;14.35;;;4.32;;
71125;SDS011;58785;55.566;38.058;2023-04-24T14:01:45;19.08;;;3.75;;
71125;SDS011;58785;55.566;38.058;2023-04-24T14:04:11;10.87;;;3.10;;
71125;SDS011;58785;55.566;38.058;2023-04-24T14:06:37;6.90;;;2.70;;
71125;SDS011;58785;55.566;38.058;2023-04-24T14:09:02;8.02;;;2.88;;
71125;SDS011;58785;55.566;38.058;2023-04-24T14:11:28;8.50;;;2.80;;
71125;SDS011;58785;55.566;38.058;2023-04-24T14:13:54;9.20;;;2.88;;
71125;SDS011;58785;55.566;38.058;2023-04-24T14:16:21;10.73;;;3.20;;
71125;SDS011;58785;55.566;38.058;2023-04-24T14:18:47;7.33;;;3.13;;
71125;SDS011;58785;55.566;38.058;2023-04-24T14:21:13;7.45;;;3.20;;
71125;SDS011;58785;55.566;38.058;2023-04-24T14:23:38;11.83;;;3.80;;
71125;SDS011;58785;55.566;38.058;2023-04-24T14:26:04;9.77;;;3.28;;
71125;SDS011;58785;55.566;38.058;2023-04-24T14:28:30;17.87;;;7.73;;
71125;SDS011;58785;55.566;38.058;2023-04-24T14:30:55;17.60;;;10.02;;
71125;SDS011;58785;55.566;38.058;2023-04-24T14:33:21;20.20;;;10.30;;
71125;SDS011;58785;55.566;38.058;2023-04-24T14:35:46;21.05;;;8.05;;